MST,Max TemperatureF,Mean TemperatureF,Min TemperatureF,Max Dew PointF,MeanDew PointF,Min DewpointF,Max Humidity, Mean Humidity, Min Humidity, Max Sea Level PressureIn, Mean Sea Level PressureIn, Min Sea Level PressureIn, Max VisibilityMiles, Mean VisibilityMiles, Min VisibilityMiles, Max Wind SpeedMPH, Mean Wind SpeedMPH, Max Gust SpeedMPH,PrecipitationIn, CloudCover, Events, WindDirDegrees
2013-1-1,26,17,8,16,11,4,92,74,56,30.19,30.08,29.91,10,10,10,21,8,31,T,4,,276
2013-1-2,23,13,2,13,8,0,87,72,57,30.37,30.13,29.95,10,10,5,21,7,33,0.01,7,Snow,277
2013-1-3,39,18,-4,7,1,-7,87,52,17,30.39,30.28,30.17,10,10,10,9,4,15,0.00,0,,285
2013-1-4,48,33,18,11,2,-10,52,33,14,30.17,30.09,30.01,10,10,10,15,5,20,0.00,0,,303
2013-1-5,34,26,17,15,12,5,68,53,38,30.30,30.18,30.04,10,10,10,17,8,28,0.00,0,,293
2013-1-6,43,29,15,13,7,-1,73,46,19,30.24,30.02,29.85,10,10,10,22,9,31,0.00,0,,256
2013-1-7,37,29,21,19,14,9,81,60,38,30.01,29.89,29.68,10,10,10,14,5,22,0.00,0,,243
2013-1-8,37,31,24,20,16,12,68,56,43,30.15,29.89,29.67,10,10,10,28,11,40,T,2,,288
2013-1-9,45,35,24,21,18,14,68,51,34,30.21,30.09,29.88,10,10,10,17,9,31,0.00,0,,243
2013-1-10,45,38,30,17,12,10,40,33,25,29.83,29.59,29.39,10,10,10,22,10,37,0.00,0,,246
2013-1-11,41,19,-3,22,11,-11,92,65,38,29.84,29.45,29.32,10,3,0,17,6,25,0.48,7,Fog-Snow,226
2013-1-12,7,2,-3,0,-4,-10,87,78,68,30.19,29.92,29.59,10,4,2,18,5,25,0.08,8,Snow,313
2013-1-13,11,3,-5,3,-3,-7,87,75,63,30.30,30.12,29.87,10,9,3,10,4,17,T,6,Snow,247
2013-1-14,12,4,-4,-2,-5,-7,87,70,52,30.32,30.19,29.90,10,8,1,18,8,25,0.00,1,,257
2013-1-15,31,15,-2,22,13,-9,81,64,46,30.15,30.01,29.84,10,10,7,21,11,37,T,6,Snow,275
2013-1-16,37,30,22,20,17,13,88,63,37,30.34,30.17,30.02,10,10,9,25,11,37,0.00,0,,280
2013-1-17,38,29,19,17,15,13,77,59,40,30.43,30.30,30.08,10,10,8,20,7,28,0.00,0,,265
2013-1-18,45,37,29,17,10,7,51,37,22,30.06,29.97,29.90,10,10,10,24,9,41,0.00,0,,265
2013-1-19,39,30,20,20,14,11,92,62,32,30.22,30.10,29.90,10,10,10,21,9,32,0.00,0,,286
2013-1-20,30,20,9,17,10,6,91,67,43,30.36,30.24,30.06,10,9,3,15,7,28,T,5,Snow,275
2013-1-21,29,21,12,18,11,8,84,70,55,30.28,30.13,29.96,10,8,2,20,7,33,T,5,Snow,256
2013-1-22,41,31,21,10,6,-2,62,42,22,30.10,30.05,30.00,10,10,10,23,9,30,0.00,0,,276
2013-1-23,38,27,15,15,8,-3,88,54,20,30.22,30.14,30.03,10,10,10,10,4,16,0.00,0,,197
2013-1-24,52,35,17,23,14,6,80,50,19,30.09,29.99,29.87,10,10,10,18,8,35,0.00,0,,281
2013-1-25,46,36,25,20,17,13,74,53,31,30.14,30.07,29.96,10,10,10,16,6,22,0.00,0,,267
2013-1-26,50,39,28,23,21,19,75,53,31,29.95,29.86,29.76,10,10,10,14,5,20,0.00,0,,261
2013-1-27,46,36,25,28,24,20,92,69,45,29.73,29.69,29.63,10,10,10,14,5,22,0.00,3,,260
2013-1-28,28,25,21,27,23,19,100,91,81,29.80,29.69,29.64,10,3,0,8,2,13,0.21,8,Fog-Snow,143
2013-1-29,27,16,5,19,10,0,88,67,46,30.00,29.79,29.62,10,8,1,14,4,25,0.02,4,Snow,326
2013-1-30,23,11,-1,13,7,-3,95,76,56,29.98,29.84,29.60,10,10,7,21,9,37,T,6,Snow,296
2013-1-31,25,16,6,20,4,-5,88,70,52,30.22,30.10,29.88,10,10,8,22,10,31,T,6,Snow,287